sensor_id;sensor_type;location;lat;lon;timestamp;pressure;altitude;pressure_sealevel;temperature;humidity
62789;BME280;66401;42.016;21.454;2023-01-29T00:01:08;98592.22;;;2.24;75.20
62789;BME280;66401;42.016;21.454;2023-01-29T00:03:34;98606.28;;;2.30;75.22
62789;BME280;66401;42.016;21.454;2023-01-29T00:06:03;98610.38;;;2.33;75.27
62789;BME280;66401;42.016;21.454;2023-01-29T00:08:29;98609.81;;;2.29;76.06
62789;BME280;66401;42.016;21.454;2023-01-29T00:11:00;98611.44;;;2.30;75.14
62789;BME280;66401;42.016;21.454;2023-01-29T00:13:25;98620.91;;;2.29;76.09
62789;BME280;66401;42.016;21.454;2023-01-29T00:15:55;98613.31;;;2.28;76.17
62789;BME280;66401;42.016;21.454;2023-01-29T00:18:21;98612.91;;;2.23;76.88
62789;BME280;66401;42.016;21.454;2023-01-29T00:20:47;98604.09;;;2.16;76.35
62789;BME280;66401;42.016;21.454;2023-01-29T00:23:13;98622.25;;;2.24;77.13
62789;BME280;66401;42.016;21.454;2023-01-29T00:25:40;98605.03;;;2.15;76.37
62789;BME280;66401;42.016;21.454;2023-01-29T00:28:06;98626.69;;;2.22;76.84
62789;BME280;66401;42.016;21.454;2023-01-29T00:30:31;98626.00;;;2.20;76.65
62789;BME280;66401;42.016;21.454;2023-01-29T00:32:56;98636.28;;;2.20;77.68
62789;BME280;66401;42.016;21.454;2023-01-29T00:35:22;98634.38;;;2.22;76.75
62789;BME280;66401;42.016;21.454;2023-01-29T00:37:47;98609.03;;;1.98;76.20
62789;BME280;66401;42.016;21.454;2023-01-29T00:40:13;98640.44;;;2.11;77.31
62789;BME280;66401;42.016;21.454;2023-01-29T00:42:38;98636.00;;;2.13;76.50
62789;BME280;66401;42.016;21.454;2023-01-29T00:45:22;98634.06;;;2.06;77.82
62789;BME280;66401;42.016;21.454;2023-01-29T00:47:48;98626.88;;;1.99;78.38
62789;BME280;66401;42.016;21.454;2023-01-29T00:50:13;98610.88;;;1.86;78.16
62789;BME280;66401;42.016;21.454;2023-01-29T00:52:39;98634.56;;;1.99;78.14
62789;BME280;66401;42.016;21.454;2023-01-29T00:55:09;98634.53;;;1.90;78.36
62789;BME280;66401;42.016;21.454;2023-01-29T00:57:35;98641.88;;;1.94;78.03
62789;BME280;66401;42.016;21.454;2023-01-29T01:00:04;98629.97;;;1.93;77.59
62789;BME280;66401;42.016;21.454;2023-01-29T01:02:30;98635.78;;;1.95;78.82
62789;BME280;66401;42.016;21.454;2023-01-29T01:05:16;98649.72;;;2.03;78.43
62789;BME280;66401;42.016;21.454;2023-01-29T01:07:50;98640.66;;;1.98;78.59
62789;BME280;66401;42.016;21.454;2023-01-29T01:10:24;98636.84;;;1.93;77.91
62789;BME280;66401;42.016;21.454;2023-01-29T01:12:53;98646.88;;;1.96;78.54
62789;BME280;66401;42.016;21.454;2023-01-29T01:15:19;98648.63;;;1.95;77.66
62789;BME280;66401;42.016;21.454;2023-01-29T01:17:45;98634.22;;;1.83;78.48
62789;BME280;66401;42.016;21.454;2023-01-29T01:20:13;98650.25;;;1.96;77.79
62789;BME280;66401;42.016;21.454;2023-01-29T01:22:39;98644.53;;;1.93;77.86
62789;BME280;66401;42.016;21.454;2023-01-29T01:25:05;98646.06;;;1.95;79.13
62789;BME280;66401;42.016;21.454;2023-01-29T01:27:30;98649.81;;;1.91;78.56
62789;BME280;66401;42.016;21.454;2023-01-29T01:29:56;98663.78;;;1.98;78.34
62789;BME280;66401;42.016;21.454;2023-01-29T01:32:22;98646.28;;;1.92;78.95
62789;BME280;66401;42.016;21.454;2023-01-29T01:34:47;98639.31;;;1.94;77.85
62789;BME280;66401;42.016;21.454;2023-01-29T01:37:13;98645.94;;;1.97;78.27
62789;BME280;66401;42.016;21.454;2023-01-29T01:39:38;98631.63;;;2.04;77.36
62789;BME280;66401;42.016;21.454;2023-01-29T01:42:08;98629.72;;;1.96;78.51
62789;BME280;66401;42.016;21.454;2023-01-29T01:50:46;98646.34;;;2.02;78.24
62789;BME280;66401;42.016;21.454;2023-01-29T01:53:15;98642.97;;;2.01;79.24
62789;BME280;66401;42.016;21.454;2023-01-29T01:55:47;98646.34;;;2.02;77.12
62789;BME280;66401;42.016;21.454;2023-01-29T01:58:23;98647.28;;;2.01;77.93
62789;BME280;66401;42.016;21.454;2023-01-29T02:00:50;98641.34;;;2.00;78.77
62789;BME280;66401;42.016;21.454;2023-01-29T02:03:17;98639.16;;;1.96;79.25
62789;BME280;66401;42.016;21.454;2023-01-29T02:06:02;98648.09;;;2.01;77.96
62789;BME280;66401;42.016;21.454;2023-01-29T02:08:57;98661.38;;;2.07;77.54
62789;BME280;66401;42.016;21.454;2023-01-29T02:11:42;98655.44;;;2.06;78.42
62789;BME280;66401;42.016;21.454;2023-01-29T02:14:08;98650.97;;;2.08;78.48
62789;BME280;66401;42.016;21.454;2023-01-29T02:16:35;98645.72;;;2.10;78.28
62789;BME280;66401;42.016;21.454;2023-01-29T02:19:04;98654.09;;;2.12;78.02
62789;BME280;66401;42.016;21.454;2023-01-29T02:27:23;98659.94;;;2.14;77.38
62789;BME280;66401;42.016;21.454;2023-01-29T02:32:57;98641.91;;;2.04;77.38
62789;BME280;66401;42.016;21.454;2023-01-29T02:35:41;98666.63;;;2.26;76.80
62789;BME280;66401;42.016;21.454;2023-01-29T02:38:17;98666.63;;;2.26;77.08
62789;BME280;66401;42.016;21.454;2023-01-29T02:40:54;98670.16;;;2.35;75.27
62789;BME280;66401;42.016;21.454;2023-01-29T02:43:29;98674.22;;;2.37;76.94
62789;BME280;66401;42.016;21.454;2023-01-29T02:46:22;98665.75;;;2.46;75.11
62789;BME280;66401;42.016;21.454;2023-01-29T02:51:25;98667.72;;;2.33;75.19
62789;BME280;66401;42.016;21.454;2023-01-29T02:54:06;98667.97;;;2.30;75.49
62789;BME280;66401;42.016;21.454;2023-01-29T02:56:38;98677.47;;;2.39;76.29
62789;BME280;66401;42.016;21.454;2023-01-29T02:59:14;98663.53;;;2.32;76.08
62789;BME280;66401;42.016;21.454;2023-01-29T03:01:47;98672.34;;;2.39;76.17
62789;BME280;66401;42.016;21.454;2023-01-29T03:04:20;98678.59;;;2.46;75.97
62789;BME280;66401;42.016;21.454;2023-01-29T03:06:54;98669.09;;;2.37;78.49
62789;BME280;66401;42.016;21.454;2023-01-29T03:09:29;98679.94;;;2.50;78.49
62789;BME280;66401;42.016;21.454;2023-01-29T03:12:04;98654.75;;;2.35;78.38
62789;BME280;66401;42.016;21.454;2023-01-29T03:14:45;98682.00;;;2.56;76.90
62789;BME280;66401;42.016;21.454;2023-01-29T03:17:36;98676.69;;;2.48;78.24
62789;BME280;66401;42.016;21.454;2023-01-29T03:20:10;98686.97;;;2.48;77.94
62789;BME280;66401;42.016;21.454;2023-01-29T03:22:39;98689.41;;;2.50;78.30
62789;BME280;66401;42.016;21.454;2023-01-29T03:25:09;98695.38;;;2.50;78.32
62789;BME280;66401;42.016;21.454;2023-01-29T03:27:57;98676.41;;;2.32;77.57
62789;BME280;66401;42.016;21.454;2023-01-29T03:30:54;98676.50;;;2.30;79.53
62789;BME280;66401;42.016;21.454;2023-01-29T03:33:46;98686.69;;;2.32;79.01
62789;BME280;66401;42.016;21.454;2023-01-29T03:36:40;98690.06;;;2.33;78.92
62789;BME280;66401;42.016;21.454;2023-01-29T03:39:09;98682.38;;;2.42;78.41
62789;BME280;66401;42.016;21.454;2023-01-29T03:52:54;98679.94;;;2.50;79.67
62789;BME280;66401;42.016;21.454;2023-01-29T04:03:19;98683.53;;;2.69;77.67
62789;BME280;66401;42.016;21.454;2023-01-29T04:08:32;98687.81;;;2.58;78.75
62789;BME280;66401;42.016;21.454;2023-01-29T04:11:02;98678.31;;;2.49;78.97
62789;BME280;66401;42.016;21.454;2023-01-29T04:13:32;98680.22;;;2.47;77.95
62789;BME280;66401;42.016;21.454;2023-01-29T04:15:59;98684.00;;;2.43;78.67
62789;BME280;66401;42.016;21.454;2023-01-29T04:18:25;98688.34;;;2.43;78.78
62789;BME280;66401;42.016;21.454;2023-01-29T04:20:51;98688.34;;;2.43;78.97
62789;BME280;66401;42.016;21.454;2023-01-29T04:23:23;98672.59;;;2.36;78.37
62789;BME280;66401;42.016;21.454;2023-01-29T04:31:30;98689.75;;;2.26;78.68
62789;BME280;66401;42.016;21.454;2023-01-29T04:37:04;98692.88;;;2.29;78.17
62789;BME280;66401;42.016;21.454;2023-01-29T04:49:55;98684.25;;;2.40;77.50
62789;BME280;66401;42.016;21.454;2023-01-29T04:55:19;98698.47;;;2.44;78.53
62789;BME280;66401;42.016;21.454;2023-01-29T05:00:43;98691.09;;;2.30;77.97
62789;BME280;66401;42.016;21.454;2023-01-29T05:03:13;98702.94;;;2.42;76.71
62789;BME280;66401;42.016;21.454;2023-01-29T05:05:41;98706.19;;;2.44;76.86
62789;BME280;66401;42.016;21.454;2023-01-29T05:08:11;98709.59;;;2.45;77.63
62789;BME280;66401;42.016;21.454;2023-01-29T05:10:39;98712.41;;;2.42;77.49
62789;BME280;66401;42.016;21.454;2023-01-29T05:13:10;98712.66;;;2.39;78.03
62789;BME280;66401;42.016;21.454;2023-01-29T05:15:40;98707.22;;;2.32;78.62
62789;BME280;66401;42.016;21.454;2023-01-29T05:18:08;98719.16;;;2.33;79.14
62789;BME280;66401;42.016;21.454;2023-01-29T05:20:39;98713.56;;;2.28;78.48
62789;BME280;66401;42.016;21.454;2023-01-29T05:23:16;98711.81;;;2.28;77.25
62789;BME280;66401;42.016;21.454;2023-01-29T05:25:43;98716.44;;;2.35;77.27
62789;BME280;66401;42.016;21.454;2023-01-29T05:28:10;98722.13;;;2.38;77.57
62789;BME280;66401;42.016;21.454;2023-01-29T05:30:42;98725.66;;;2.37;78.69
62789;BME280;66401;42.016;21.454;2023-01-29T05:33:29;98722.75;;;2.51;77.20
62789;BME280;66401;42.016;21.454;2023-01-29T05:35:57;98724.09;;;2.55;78.24
62789;BME280;66401;42.016;21.454;2023-01-29T05:38:23;98690.88;;;2.33;77.39
62789;BME280;66401;42.016;21.454;2023-01-29T05:40:49;98730.88;;;2.56;78.62
62789;BME280;66401;42.016;21.454;2023-01-29T05:43:22;98721.84;;;2.41;78.13
62789;BME280;66401;42.016;21.454;2023-01-29T05:45:53;98725.72;;;2.56;78.12
62789;BME280;66401;42.016;21.454;2023-01-29T05:48:19;98725.13;;;2.43;78.73
62789;BME280;66401;42.016;21.454;2023-01-29T05:50:44;98726.22;;;2.50;78.62
62789;BME280;66401;42.016;21.454;2023-01-29T05:53:10;98736.78;;;2.47;77.94
62789;BME280;66401;42.016;21.454;2023-01-29T05:55:35;98727.13;;;2.40;77.95
62789;BME280;66401;42.016;21.454;2023-01-29T05:58:01;98732.59;;;2.46;78.28
62789;BME280;66401;42.016;21.454;2023-01-29T06:00:26;98740.97;;;2.48;77.83
62789;BME280;66401;42.016;21.454;2023-01-29T06:02:52;98741.78;;;2.49;78.23
62789;BME280;66401;42.016;21.454;2023-01-29T06:05:17;98732.81;;;2.34;78.72
62789;BME280;66401;42.016;21.454;2023-01-29T06:07:43;98749.22;;;2.42;77.75
62789;BME280;66401;42.016;21.454;2023-01-29T06:10:14;98755.03;;;2.44;78.82
62789;BME280;66401;42.016;21.454;2023-01-29T06:12:41;98762.88;;;2.43;78.78
62789;BME280;66401;42.016;21.454;2023-01-29T06:15:07;98748.09;;;2.35;78.15
62789;BME280;66401;42.016;21.454;2023-01-29T06:17:33;98746.72;;;2.31;78.27
62789;BME280;66401;42.016;21.454;2023-01-29T06:19:58;98762.44;;;2.38;78.73
62789;BME280;66401;42.016;21.454;2023-01-29T06:22:24;98763.53;;;2.35;78.41
62789;BME280;66401;42.016;21.454;2023-01-29T06:24:49;98773.13;;;2.33;79.20
62789;BME280;66401;42.016;21.454;2023-01-29T06:27:15;98786.38;;;2.38;79.75
62789;BME280;66401;42.016;21.454;2023-01-29T06:29:40;98784.13;;;2.45;79.61
62789;BME280;66401;42.016;21.454;2023-01-29T06:32:06;98778.41;;;2.41;79.91
62789;BME280;66401;42.016;21.454;2023-01-29T06:34:31;98779.81;;;2.45;78.65
62789;BME280;66401;42.016;21.454;2023-01-29T06:36:57;98775.16;;;2.39;78.52
62789;BME280;66401;42.016;21.454;2023-01-29T06:39:22;98787.06;;;2.40;79.12
62789;BME280;66401;42.016;21.454;2023-01-29T06:41:48;98785.31;;;2.41;79.59
62789;BME280;66401;42.016;21.454;2023-01-29T06:44:13;98787.22;;;2.39;78.55
62789;BME280;66401;42.016;21.454;2023-01-29T06:46:39;98794.38;;;2.35;79.67
62789;BME280;66401;42.016;21.454;2023-01-29T06:49:05;98799.78;;;2.32;78.96
62789;BME280;66401;42.016;21.454;2023-01-29T06:51:30;98801.63;;;2.30;80.40
62789;BME280;66401;42.016;21.454;2023-01-29T06:53:56;98794.88;;;2.29;79.47
62789;BME280;66401;42.016;21.454;2023-01-29T06:56:22;98800.31;;;2.36;79.65
62789;BME280;66401;42.016;21.454;2023-01-29T06:58:47;98804.38;;;2.38;79.47
62789;BME280;66401;42.016;21.454;2023-01-29T07:01:13;98791.78;;;2.35;79.56
62789;BME280;66401;42.016;21.454;2023-01-29T07:03:39;98812.16;;;2.48;78.85
62789;BME280;66401;42.016;21.454;2023-01-29T07:06:07;98823.88;;;2.41;80.09
62789;BME280;66401;42.016;21.454;2023-01-29T07:08:39;98811.03;;;2.41;80.04
62789;BME280;66401;42.016;21.454;2023-01-29T07:11:05;98818.97;;;2.58;79.04
62789;BME280;66401;42.016;21.454;2023-01-29T07:13:31;98820.59;;;2.59;79.85
62789;BME280;66401;42.016;21.454;2023-01-29T07:15:58;98815.78;;;2.66;79.84
62789;BME280;66401;42.016;21.454;2023-01-29T07:18:24;98822.19;;;2.72;78.75
62789;BME280;66401;42.016;21.454;2023-01-29T07:20:50;98825.38;;;2.64;78.25
62789;BME280;66401;42.016;21.454;2023-01-29T07:23:15;98811.53;;;2.55;79.39
62789;BME280;66401;42.016;21.454;2023-01-29T07:25:42;98825.50;;;2.63;79.30
62789;BME280;66401;42.016;21.454;2023-01-29T07:28:08;98834.09;;;2.73;79.26
62789;BME280;66401;42.016;21.454;2023-01-29T07:30:33;98818.88;;;2.70;79.78
62789;BME280;66401;42.016;21.454;2023-01-29T07:33:06;98812.69;;;2.72;79.61
62789;BME280;66401;42.016;21.454;2023-01-29T07:35:37;98827.66;;;2.88;78.22
62789;BME280;66401;42.016;21.454;2023-01-29T07:38:03;98827.28;;;2.93;79.68
62789;BME280;66401;42.016;21.454;2023-01-29T07:40:29;98830.69;;;3.03;79.63
62789;BME280;66401;42.016;21.454;2023-01-29T07:42:58;98815.13;;;3.04;78.58
62789;BME280;66401;42.016;21.454;2023-01-29T07:45:24;98829.00;;;3.23;78.33
62789;BME280;66401;42.016;21.454;2023-01-29T07:47:53;98828.31;;;3.21;78.24
62789;BME280;66401;42.016;21.454;2023-01-29T07:50:20;98815.69;;;3.17;76.24
62789;BME280;66401;42.016;21.454;2023-01-29T07:52:46;98832.38;;;3.23;76.83
62789;BME280;66401;42.016;21.454;2023-01-29T07:55:11;98814.72;;;2.99;77.05
62789;BME280;66401;42.016;21.454;2023-01-29T07:57:37;98837.53;;;3.23;76.28
62789;BME280;66401;42.016;21.454;2023-01-29T08:00:03;98835.94;;;3.32;75.52
62789;BME280;66401;42.016;21.454;2023-01-29T08:02:28;98840.56;;;3.38;75.90
62789;BME280;66401;42.016;21.454;2023-01-29T08:04:54;98849.53;;;3.53;76.41
62789;BME280;66401;42.016;21.454;2023-01-29T08:07:19;98854.84;;;3.61;75.99
62789;BME280;66401;42.016;21.454;2023-01-29T08:09:44;98845.06;;;3.55;75.36
62789;BME280;66401;42.016;21.454;2023-01-29T08:12:10;98842.50;;;3.65;73.80
62789;BME280;66401;42.016;21.454;2023-01-29T08:14:35;98831.09;;;3.48;75.60
62789;BME280;66401;42.016;21.454;2023-01-29T08:17:01;98859.56;;;3.56;74.64
62789;BME280;66401;42.016;21.454;2023-01-29T08:19:26;98861.19;;;3.48;75.11
62789;BME280;66401;42.016;21.454;2023-01-29T08:21:53;98870.66;;;3.57;75.65
62789;BME280;66401;42.016;21.454;2023-01-29T08:24:19;98863.66;;;3.68;74.21
62789;BME280;66401;42.016;21.454;2023-01-29T08:26:44;98859.31;;;3.69;74.10
62789;BME280;66401;42.016;21.454;2023-01-29T08:29:10;98870.44;;;3.69;73.61
62789;BME280;66401;42.016;21.454;2023-01-29T08:31:36;98841.81;;;3.53;72.61
62789;BME280;66401;42.016;21.454;2023-01-29T08:34:01;98840.03;;;3.44;72.32
62789;BME280;66401;42.016;21.454;2023-01-29T08:36:27;98864.59;;;3.58;73.64
62789;BME280;66401;42.016;21.454;2023-01-29T08:38:53;98858.91;;;3.73;72.31
62789;BME280;66401;42.016;21.454;2023-01-29T08:41:18;98862.88;;;4.16;71.24
62789;BME280;66401;42.016;21.454;2023-01-29T08:43:44;98852.81;;;4.32;70.13
62789;BME280;66401;42.016;21.454;2023-01-29T08:46:10;98862.88;;;4.36;69.38
62789;BME280;66401;42.016;21.454;2023-01-29T08:48:36;98849.16;;;5.19;67.04
62789;BME280;66401;42.016;21.454;2023-01-29T08:51:02;98868.75;;;6.12;63.82
62789;BME280;66401;42.016;21.454;2023-01-29T08:53:29;98872.81;;;5.97;63.17
62789;BME280;66401;42.016;21.454;2023-01-29T08:55:55;98877.56;;;5.74;63.99
62789;BME280;66401;42.016;21.454;2023-01-29T08:58:20;98868.28;;;5.81;62.81
62789;BME280;66401;42.016;21.454;2023-01-29T09:00:46;98878.44;;;5.65;62.73
62789;BME280;66401;42.016;21.454;2023-01-29T09:03:11;98874.53;;;5.33;64.52
62789;BME280;66401;42.016;21.454;2023-01-29T09:05:38;98884.28;;;5.39;63.82
62789;BME280;66401;42.016;21.454;2023-01-29T09:08:05;98878.50;;;5.55;63.51
62789;BME280;66401;42.016;21.454;2023-01-29T09:10:31;98874.66;;;5.59;63.88
62789;BME280;66401;42.016;21.454;2023-01-29T09:12:56;98886.38;;;6.52;62.17
62789;BME280;66401;42.016;21.454;2023-01-29T09:15:22;98877.72;;;9.58;53.59
62789;BME280;66401;42.016;21.454;2023-01-29T09:17:48;98877.97;;;9.94;50.45
62789;BME280;66401;42.016;21.454;2023-01-29T09:20:14;98869.53;;;9.69;50.31
62789;BME280;66401;42.016;21.454;2023-01-29T09:22:40;98882.53;;;8.33;53.45
62789;BME280;66401;42.016;21.454;2023-01-29T09:25:06;98883.94;;;7.37;54.80
62789;BME280;66401;42.016;21.454;2023-01-29T09:27:31;98881.41;;;6.59;57.09
62789;BME280;66401;42.016;21.454;2023-01-29T09:29:57;98883.06;;;6.07;59.29
62789;BME280;66401;42.016;21.454;2023-01-29T09:32:23;98879.94;;;5.85;60.55
62789;BME280;66401;42.016;21.454;2023-01-29T09:34:48;98880.25;;;5.82;61.36
62789;BME280;66401;42.016;21.454;2023-01-29T09:37:14;98872.06;;;5.41;62.84
62789;BME280;66401;42.016;21.454;2023-01-29T09:39:42;98875.59;;;5.40;62.13
62789;BME280;66401;42.016;21.454;2023-01-29T09:42:12;98875.19;;;5.35;63.04
62789;BME280;66401;42.016;21.454;2023-01-29T09:45:14;98876.16;;;5.34;62.76
62789;BME280;66401;42.016;21.454;2023-01-29T09:47:41;98865.63;;;4.71;62.98
62789;BME280;66401;42.016;21.454;2023-01-29T09:50:21;98864.97;;;4.69;63.55
62789;BME280;66401;42.016;21.454;2023-01-29T09:52:58;98857.56;;;4.94;63.86
62789;BME280;66401;42.016;21.454;2023-01-29T09:55:32;98857.88;;;5.18;62.24
62789;BME280;66401;42.016;21.454;2023-01-29T09:58:04;98855.75;;;5.41;61.95
62789;BME280;66401;42.016;21.454;2023-01-29T10:00:41;98839.38;;;5.68;61.22
62789;BME280;66401;42.016;21.454;2023-01-29T10:08:40;98853.50;;;4.91;62.74
62789;BME280;66401;42.016;21.454;2023-01-29T10:16:40;98842.41;;;4.71;63.63
62789;BME280;66401;42.016;21.454;2023-01-29T10:19:33;98847.34;;;4.65;63.58
62789;BME280;66401;42.016;21.454;2023-01-29T10:22:22;98842.88;;;4.57;62.86
62789;BME280;66401;42.016;21.454;2023-01-29T10:24:59;98836.25;;;4.45;65.06
62789;BME280;66401;42.016;21.454;2023-01-29T10:27:39;98838.94;;;4.43;65.25
62789;BME280;66401;42.016;21.454;2023-01-29T10:30:28;98832.72;;;4.46;64.38
62789;BME280;66401;42.016;21.454;2023-01-29T10:32:58;98826.88;;;4.24;65.49
62789;BME280;66401;42.016;21.454;2023-01-29T10:35:32;98823.66;;;4.03;66.05
62789;BME280;66401;42.016;21.454;2023-01-29T10:38:11;98821.50;;;4.08;67.08
62789;BME280;66401;42.016;21.454;2023-01-29T10:40:55;98830.44;;;4.23;66.18
62789;BME280;66401;42.016;21.454;2023-01-29T10:43:30;98829.22;;;4.27;65.84
62789;BME280;66401;42.016;21.454;2023-01-29T11:00:23;98805.41;;;4.43;62.23
62789;BME280;66401;42.016;21.454;2023-01-29T11:02:50;98807.19;;;4.43;62.15
62789;BME280;66401;42.016;21.454;2023-01-29T11:05:32;98797.16;;;4.40;63.57
62789;BME280;66401;42.016;21.454;2023-01-29T11:08:07;98800.69;;;4.39;62.19
62789;BME280;66401;42.016;21.454;2023-01-29T11:10:50;98802.31;;;4.40;63.19
62789;BME280;66401;42.016;21.454;2023-01-29T11:13:17;98781.97;;;4.37;63.00
62789;BME280;66401;42.016;21.454;2023-01-29T11:15:43;98779.50;;;4.45;62.42
62789;BME280;66401;42.016;21.454;2023-01-29T11:18:13;98788.16;;;4.44;64.15
62789;BME280;66401;42.016;21.454;2023-01-29T11:20:44;98774.06;;;4.48;64.93
62789;BME280;66401;42.016;21.454;2023-01-29T11:25:53;98776.16;;;4.62;63.06
62789;BME280;66401;42.016;21.454;2023-01-29T11:28:37;98769.91;;;4.74;64.48
62789;BME280;66401;42.016;21.454;2023-01-29T11:31:03;98763.94;;;4.74;64.07
62789;BME280;66401;42.016;21.454;2023-01-29T11:33:39;98770.47;;;4.96;62.63
62789;BME280;66401;42.016;21.454;2023-01-29T11:36:35;98770.19;;;4.99;62.10
62789;BME280;66401;42.016;21.454;2023-01-29T11:39:17;98773.41;;;5.01;62.70
62789;BME280;66401;42.016;21.454;2023-01-29T11:41:51;98766.31;;;4.85;63.53
62789;BME280;66401;42.016;21.454;2023-01-29T11:44:40;98744.22;;;4.73;62.38
62789;BME280;66401;42.016;21.454;2023-01-29T11:47:18;98764.91;;;4.91;64.77
62789;BME280;66401;42.016;21.454;2023-01-29T11:52:12;98759.94;;;4.79;63.78
62789;BME280;66401;42.016;21.454;2023-01-29T11:55:04;98761.06;;;4.77;64.48
62789;BME280;66401;42.016;21.454;2023-01-29T12:00:19;98768.44;;;4.89;63.87
62789;BME280;66401;42.016;21.454;2023-01-29T12:02:49;98755.59;;;4.80;62.21
62789;BME280;66401;42.016;21.454;2023-01-29T12:05:21;98755.44;;;4.81;64.16
62789;BME280;66401;42.016;21.454;2023-01-29T12:07:54;98759.00;;;4.80;65.32
62789;BME280;66401;42.016;21.454;2023-01-29T12:10:36;98760.34;;;4.84;65.26
62789;BME280;66401;42.016;21.454;2023-01-29T12:15:34;98758.84;;;4.82;65.99
62789;BME280;66401;42.016;21.454;2023-01-29T12:18:02;98765.22;;;4.87;65.87
62789;BME280;66401;42.016;21.454;2023-01-29T12:20:40;98756.22;;;4.92;66.39
62789;BME280;66401;42.016;21.454;2023-01-29T12:23:12;98754.69;;;4.99;63.36
62789;BME280;66401;42.016;21.454;2023-01-29T12:25:55;98750.28;;;4.81;63.86
62789;BME280;66401;42.016;21.454;2023-01-29T12:31:28;98745.63;;;4.95;63.60
62789;BME280;66401;42.016;21.454;2023-01-29T12:39:18;98743.13;;;5.03;63.34
62789;BME280;66401;42.016;21.454;2023-01-29T12:41:56;98732.66;;;5.04;62.73
62789;BME280;66401;42.016;21.454;2023-01-29T12:44:39;98736.66;;;4.89;62.20
62789;BME280;66401;42.016;21.454;2023-01-29T12:47:40;98743.13;;;5.03;62.16
62789;BME280;66401;42.016;21.454;2023-01-29T12:50:17;98745.03;;;5.01;62.76
62789;BME280;66401;42.016;21.454;2023-01-29T12:55:21;98742.31;;;5.02;63.87
62789;BME280;66401;42.016;21.454;2023-01-29T12:58:00;98740.41;;;5.04;62.32
62789;BME280;66401;42.016;21.454;2023-01-29T13:00:34;98740.97;;;4.98;62.25
62789;BME280;66401;42.016;21.454;2023-01-29T13:03:45;98738.53;;;4.97;61.73
62789;BME280;66401;42.016;21.454;2023-01-29T13:06:20;98744.81;;;4.94;61.64
62789;BME280;66401;42.016;21.454;2023-01-29T13:08:52;98739.78;;;4.93;60.94
62789;BME280;66401;42.016;21.454;2023-01-29T13:16:25;98740.66;;;4.83;60.31
62789;BME280;66401;42.016;21.454;2023-01-29T13:21:20;98741.06;;;4.79;61.54
62789;BME280;66401;42.016;21.454;2023-01-29T13:23:49;98736.75;;;4.70;60.69
62789;BME280;66401;42.016;21.454;2023-01-29T13:26:20;98742.59;;;4.72;60.27
62789;BME280;66401;42.016;21.454;2023-01-29T13:28:47;98751.47;;;4.59;61.04
62789;BME280;66401;42.016;21.454;2023-01-29T13:31:37;98740.34;;;4.59;61.09
62789;BME280;66401;42.016;21.454;2023-01-29T13:34:32;98737.34;;;4.64;61.38
62789;BME280;66401;42.016;21.454;2023-01-29T13:37:01;98742.25;;;4.57;62.29
62789;BME280;66401;42.016;21.454;2023-01-29T13:39:32;98740.06;;;4.62;62.95
62789;BME280;66401;42.016;21.454;2023-01-29T13:41:59;98732.28;;;4.44;61.10
62789;BME280;66401;42.016;21.454;2023-01-29T13:44:35;98742.13;;;4.58;62.70
62789;BME280;66401;42.016;21.454;2023-01-29T13:47:08;98735.25;;;4.40;62.71
62789;BME280;66401;42.016;21.454;2023-01-29T13:49:45;98748.56;;;4.45;61.94
62789;BME280;66401;42.016;21.454;2023-01-29T13:57:49;98742.31;;;4.38;63.65
62789;BME280;66401;42.016;21.454;2023-01-29T14:08:05;98743.84;;;4.30;62.48
62789;BME280;66401;42.016;21.454;2023-01-29T14:13:43;98744.53;;;4.13;63.72
62789;BME280;66401;42.016;21.454;2023-01-29T14:18:35;98761.38;;;4.17;64.26
62789;BME280;66401;42.016;21.454;2023-01-29T14:23:49;98758.78;;;4.27;63.77
62789;BME280;66401;42.016;21.454;2023-01-29T14:26:33;98765.28;;;4.21;63.11
62789;BME280;66401;42.016;21.454;2023-01-29T14:34:24;98759.22;;;4.03;62.77
62789;BME280;66401;42.016;21.454;2023-01-29T14:37:02;98761.66;;;4.05;63.59
62789;BME280;66401;42.016;21.454;2023-01-29T14:39:40;98769.66;;;4.11;64.57
62789;BME280;66401;42.016;21.454;2023-01-29T14:44:51;98776.06;;;4.07;63.73
62789;BME280;66401;42.016;21.454;2023-01-29T14:59:03;98779.31;;;3.90;62.87
62789;BME280;66401;42.016;21.454;2023-01-29T15:01:06;98785.28;;;3.81;62.97
62789;BME280;66401;42.016;21.454;2023-01-29T15:03:45;98785.69;;;3.86;63.74
62789;BME280;66401;42.016;21.454;2023-01-29T15:06:30;98779.31;;;3.70;63.89
62789;BME280;66401;42.016;21.454;2023-01-29T15:09:08;98788.25;;;3.86;64.59
62789;BME280;66401;42.016;21.454;2023-01-29T15:14:25;98799.13;;;3.80;63.58
62789;BME280;66401;42.016;21.454;2023-01-29T15:19:41;98796.13;;;3.74;64.54
62789;BME280;66401;42.016;21.454;2023-01-29T15:22:17;98794.25;;;3.57;63.24
62789;BME280;66401;42.016;21.454;2023-01-29T15:24:44;98762.63;;;3.55;64.28
62789;BME280;66401;42.016;21.454;2023-01-29T15:27:14;98784.63;;;3.79;63.63
62789;BME280;66401;42.016;21.454;2023-01-29T15:29:41;98761.69;;;3.56;63.61
62789;BME280;66401;42.016;21.454;2023-01-29T15:32:15;98788.81;;;3.70;63.70
62789;BME280;66401;42.016;21.454;2023-01-29T15:34:44;98801.03;;;3.68;64.00
62789;BME280;66401;42.016;21.454;2023-01-29T15:37:25;98796.25;;;3.63;64.05
62789;BME280;66401;42.016;21.454;2023-01-29T15:39:51;98791.38;;;3.60;64.14
62789;BME280;66401;42.016;21.454;2023-01-29T15:42:17;98797.75;;;3.56;64.87
62789;BME280;66401;42.016;21.454;2023-01-29T15:44:47;98802.06;;;3.56;64.60
62789;BME280;66401;42.016;21.454;2023-01-29T15:47:13;98799.91;;;3.51;64.75
62789;BME280;66401;42.016;21.454;2023-01-29T15:49:40;98806.28;;;3.57;64.78
62789;BME280;66401;42.016;21.454;2023-01-29T15:52:28;98811.56;;;3.55;65.65
62789;BME280;66401;42.016;21.454;2023-01-29T15:55:02;98807.38;;;3.54;63.88
62789;BME280;66401;42.016;21.454;2023-01-29T15:57:34;98809.94;;;3.54;63.97
62789;BME280;66401;42.016;21.454;2023-01-29T16:00:03;98817.81;;;3.62;64.28
62789;BME280;66401;42.016;21.454;2023-01-29T16:02:37;98813.59;;;3.52;64.38
62789;BME280;66401;42.016;21.454;2023-01-29T16:05:13;98821.84;;;3.45;66.49